createdAt,value
2017-03-28T17:24:27.657Z,19.90
2017-03-28T17:25:25.221Z,19.90
2017-03-28T17:26:22.936Z,19.90
2017-03-28T17:27:20.702Z,20.00
2017-03-28T17:28:20.057Z,20.10
2017-03-28T17:29:17.680Z,20.20
2017-03-28T17:30:15.522Z,20.30
2017-03-28T17:31:13.204Z,20.30
2017-03-28T17:32:10.988Z,20.40
2017-03-28T17:33:09.395Z,20.50
2017-03-28T17:34:07.109Z,20.50
2017-03-28T17:35:05.557Z,20.60
2017-03-28T17:36:03.367Z,20.60
2017-03-28T17:37:00.988Z,20.70
2017-03-28T17:37:59.381Z,20.70
2017-03-28T17:38:56.991Z,20.70
2017-03-28T17:39:54.616Z,20.70
2017-03-28T17:40:52.236Z,20.80
2017-03-28T17:41:49.845Z,20.80
2017-03-28T17:42:47.496Z,20.90
2017-03-28T17:43:45.088Z,20.90
2017-03-28T17:44:42.689Z,21.00
2017-03-28T17:45:40.276Z,21.00
2017-03-28T17:46:37.892Z,21.10
2017-03-28T17:47:36.256Z,21.10
2017-03-28T17:48:33.838Z,21.10
2017-03-28T17:49:31.447Z,21.10
2017-03-28T17:50:29.037Z,21.20
2017-03-28T17:51:27.381Z,21.10
2017-03-28T17:52:24.981Z,21.10
2017-03-28T17:53:22.609Z,21.10
2017-03-28T17:54:20.302Z,21.10
2017-03-28T17:55:18.833Z,21.10
2017-03-28T17:56:17.209Z,21.10
2017-03-28T17:57:14.875Z,21.00
2017-03-28T17:58:12.484Z,21.10
2017-03-28T17:59:10.144Z,21.10
2017-03-28T18:00:07.716Z,21.10
2017-03-28T18:01:07.225Z,21.10
2017-03-28T18:02:04.939Z,21.00
2017-03-28T18:03:02.577Z,21.00
2017-03-28T18:04:00.275Z,21.00
2017-03-28T18:04:58.053Z,21.00
2017-03-28T18:05:55.663Z,21.00
2017-03-28T18:06:53.228Z,21.00
2017-03-28T18:07:50.841Z,21.00
2017-03-28T18:08:48.401Z,21.00
2017-03-28T18:09:46.853Z,21.10
2017-03-28T18:10:44.440Z,21.00
2017-03-28T18:11:42.806Z,21.20
2017-03-28T18:12:40.437Z,21.20
2017-03-28T18:13:38.069Z,21.30
2017-03-28T18:14:35.635Z,21.30
2017-03-28T18:15:33.376Z,21.30
2017-03-28T18:16:31.248Z,21.30
2017-03-28T18:17:28.820Z,21.30
2017-03-28T18:18:27.168Z,21.30
2017-03-28T18:19:24.879Z,21.30
2017-03-28T18:20:22.557Z,21.30
2017-03-28T18:21:20.152Z,21.30
2017-03-28T18:22:17.717Z,21.30
2017-03-28T18:23:15.377Z,21.30
2017-03-28T18:24:12.963Z,21.30
2017-03-28T18:25:10.548Z,21.30
2017-03-28T18:26:08.126Z,21.30
2017-03-28T18:27:05.816Z,21.30
2017-03-28T18:28:03.416Z,21.30
2017-03-28T18:29:00.992Z,21.30
2017-03-28T18:29:58.561Z,21.30
2017-03-28T18:30:56.220Z,21.30
2017-03-28T18:31:53.844Z,21.30
2017-03-28T18:32:52.040Z,21.20
2017-03-28T18:33:49.671Z,21.20
2017-03-28T18:34:47.272Z,21.10
2017-03-28T18:35:44.850Z,21.10
2017-03-28T18:36:44.015Z,21.00
2017-03-28T18:37:42.497Z,21.00
2017-03-28T18:38:40.953Z,20.90
2017-03-28T18:39:39.357Z,20.90
2017-03-28T18:40:51.151Z,20.90
2017-03-28T18:41:48.757Z,20.90
2017-03-28T18:42:46.581Z,20.90
2017-03-28T18:43:44.189Z,20.90
2017-03-28T18:44:41.774Z,20.90
2017-03-28T18:45:39.359Z,20.90
2017-03-28T18:46:36.988Z,20.90
2017-03-28T18:47:35.340Z,20.90
2017-03-28T18:48:33.014Z,20.90
2017-03-28T18:49:31.452Z,20.90
2017-03-28T18:50:29.028Z,20.90
2017-03-28T18:51:26.697Z,20.90
2017-03-28T18:52:24.308Z,21.00
2017-03-28T18:53:21.873Z,21.00
2017-03-28T18:54:19.521Z,21.00
2017-03-28T18:55:17.143Z,21.10
2017-03-28T18:56:15.533Z,21.10
2017-03-28T18:57:13.220Z,21.00
2017-03-28T18:58:11.573Z,21.20
2017-03-28T18:59:09.148Z,21.20
2017-03-28T19:00:06.751Z,21.30
2017-03-28T19:01:15.913Z,21.30
2017-03-28T19:02:13.733Z,21.30
2017-03-28T19:03:11.317Z,21.30
2017-03-28T19:04:09.388Z,21.20
2017-03-28T19:05:07.157Z,21.20
2017-03-28T19:06:04.742Z,21.10
2017-03-28T19:07:02.441Z,21.10
2017-03-28T19:08:00.056Z,21.10
2017-03-28T19:08:57.811Z,21.00
2017-03-28T19:09:55.512Z,21.00
2017-03-28T19:10:53.297Z,21.00
2017-03-28T19:11:50.880Z,21.00
2017-03-28T19:12:48.595Z,21.00
2017-03-28T19:13:46.199Z,21.00
2017-03-28T19:14:43.941Z,21.00
2017-03-28T19:15:42.973Z,21.00
2017-03-28T19:16:41.140Z,21.00
2017-03-28T19:17:38.740Z,21.00
2017-03-28T19:18:37.192Z,21.00
2017-03-28T19:19:35.006Z,20.90
2017-03-28T19:20:32.585Z,21.00
2017-03-28T19:21:30.172Z,21.00
2017-03-28T19:22:27.868Z,21.00
2017-03-28T19:23:25.584Z,20.90
2017-03-28T19:24:23.274Z,20.90
2017-03-28T19:25:20.863Z,21.00
2017-03-28T19:26:18.473Z,20.90
2017-03-28T19:27:16.040Z,21.00
2017-03-28T19:28:13.693Z,21.00
2017-03-28T19:29:11.297Z,20.90
2017-03-28T19:30:08.880Z,20.90
2017-03-28T19:31:08.263Z,20.90
2017-03-28T19:32:06.604Z,20.90
2017-03-28T19:33:04.180Z,20.90
2017-03-28T19:34:01.801Z,20.90
2017-03-28T19:34:59.395Z,21.00
